Racket, Missouri
Current Conditions -  °F | °C
As of 9:35 AM on Thursday 23 Oct 2014 (Local Time) from KGLY Reporting Station
Drizzle Drizzle  
Wind Chill: 55°   Ceiling: Unl
Heat Index: 55°   Visibility: 5mi
Dew Point: 52°   Wind: 6mph
Humidity: 88%   Direction: 170°S
Pressure: 30.14"   Gusts: NA
Location:  38.3166°N, 93.2711°W
Report Text: KGLY 231435Z AUTO 17005KT 5SM -DZ FEW040 SCT090 13/11 A3014 RMK AO2
Loading
Personal Weather Stations






























Interactive Weather Map
Tropical Storm Tracking
New forecast layout! Learn more

10-Day Weather Forecast

Advertisements
Track Severe Weather on mobile